createdAt,value
2022-10-30T11:08:35.371Z,99.90
2022-10-30T11:11:05.224Z,99.90
2022-10-30T11:13:37.047Z,99.90
2022-10-30T11:16:16.950Z,99.90
2022-10-30T11:18:46.654Z,99.90
2022-10-30T11:21:20.555Z,99.90
2022-10-30T11:23:49.781Z,99.90
2022-10-30T11:26:33.082Z,99.90
2022-10-30T11:29:05.625Z,99.90
2022-10-30T11:31:37.706Z,99.90
2022-10-30T11:34:22.051Z,99.90
2022-10-30T11:36:52.328Z,99.90
2022-10-30T11:39:22.267Z,99.90
2022-10-30T11:41:57.856Z,99.90
2022-10-30T11:44:29.796Z,99.90
2022-10-30T11:46:58.365Z,99.90
2022-10-30T11:49:37.779Z,99.90
2022-10-30T11:52:09.269Z,99.90
2022-10-30T11:54:40.738Z,99.90
2022-10-30T11:57:23.316Z,99.90
2022-10-30T12:09:55.388Z,99.90
2022-10-30T12:12:26.732Z,99.90
2022-10-30T12:14:55.225Z,99.90
2022-10-30T12:17:23.557Z,99.90
2022-10-30T12:19:53.820Z,99.90
2022-10-30T12:22:34.559Z,99.90
2022-10-30T12:25:05.622Z,99.90
2022-10-30T12:27:37.932Z,99.90
2022-10-30T12:30:10.281Z,99.90
2022-10-30T12:32:47.369Z,99.90
2022-10-30T12:35:37.548Z,99.90
2022-10-30T12:38:11.634Z,99.90
2022-10-30T12:40:45.047Z,99.90
2022-10-30T12:43:18.338Z,99.90
2022-10-30T12:45:48.841Z,99.90
2022-10-30T12:48:23.690Z,99.90
2022-10-30T12:51:15.979Z,99.50
2022-10-30T12:53:52.122Z,99.90
2022-10-30T12:56:27.814Z,99.80
2022-10-30T12:59:04.231Z,99.50
2022-10-30T13:01:36.832Z,99.30
2022-10-30T13:04:11.058Z,99.30
2022-10-30T13:06:46.189Z,99.30
2022-10-30T13:09:20.310Z,99.30
2022-10-30T13:11:54.032Z,97.40
2022-10-30T13:16:52.584Z,96.80
2022-10-30T13:19:20.467Z,97.50
2022-10-30T13:21:55.080Z,97.40
2022-10-30T13:24:31.800Z,97.60
2022-10-30T13:27:06.161Z,97.10
2022-10-30T13:29:42.863Z,97.30
2022-10-30T13:32:29.833Z,97.60
2022-10-30T13:35:09.262Z,98.40
2022-10-30T13:37:42.974Z,98.50
2022-10-30T13:40:19.993Z,98.60
2022-10-30T13:42:57.894Z,98.60
2022-10-30T13:45:38.859Z,98.50
2022-10-30T13:48:17.734Z,98.30
2022-10-30T13:51:05.516Z,98.40
2022-10-30T13:53:38.546Z,98.60
2022-10-30T13:56:13.253Z,98.90
2022-10-30T13:58:46.383Z,98.80
2022-10-30T14:01:20.418Z,98.60
2022-10-30T14:04:00.251Z,98.80
2022-10-30T14:06:39.615Z,99.40
2022-10-30T14:09:16.489Z,99.20
2022-10-30T14:11:45.804Z,98.80
2022-10-30T14:14:30.148Z,99.50
2022-10-30T14:17:13.931Z,99.60
2022-10-30T14:20:15.116Z,99.60
2022-10-30T14:22:43.058Z,99.90
2022-10-30T14:25:15.974Z,99.80
2022-10-30T14:59:23.205Z,99.90
2022-10-30T15:02:00.577Z,99.90
2022-10-30T15:04:39.836Z,99.90
